createdAt,value
2022-12-11T00:04:23.868Z,7.27
2022-12-11T00:09:27.059Z,8.07
2022-12-11T00:14:30.119Z,5.79
2022-12-11T00:19:36.046Z,4.34
2022-12-11T00:24:39.077Z,3.38
2022-12-11T00:29:43.565Z,3.89
2022-12-11T00:34:46.536Z,6.81
2022-12-11T00:39:55.225Z,7.35
2022-12-11T00:44:58.242Z,5.24
2022-12-11T00:50:01.219Z,3.98
2022-12-11T00:55:05.919Z,4.39
2022-12-11T01:00:10.809Z,7.02
2022-12-11T01:05:14.042Z,7.81
2022-12-11T01:10:26.087Z,5.83
2022-12-11T01:15:32.750Z,4.28
2022-12-11T01:20:40.150Z,3.38
2022-12-11T01:25:44.112Z,2.68
2022-12-11T01:30:50.117Z,2.52
2022-12-11T01:35:54.420Z,5.51
2022-12-11T01:40:57.440Z,7.66
2022-12-11T01:46:00.881Z,7.38
2022-12-11T01:51:05.933Z,5.25
2022-12-11T01:56:10.404Z,3.92
2022-12-11T02:01:26.323Z,4.00
2022-12-11T02:06:52.157Z,6.91
2022-12-11T02:12:14.018Z,7.72
2022-12-11T02:17:37.772Z,5.56
2022-12-11T02:23:26.458Z,4.12
2022-12-11T02:28:56.122Z,3.11
2022-12-11T02:34:08.734Z,2.86
2022-12-11T02:39:15.968Z,6.24
2022-12-11T02:44:27.749Z,8.09
2022-12-11T02:49:34.403Z,6.23
2022-12-11T02:54:39.694Z,4.56
2022-12-11T02:59:45.599Z,3.94
2022-12-11T03:04:48.870Z,6.90
2022-12-11T03:09:52.524Z,8.40
2022-12-11T03:14:57.893Z,6.63
2022-12-11T03:20:20.495Z,4.73
2022-12-11T03:25:36.058Z,4.50
2022-12-11T03:30:40.384Z,7.27
2022-12-11T03:35:49.994Z,6.85
2022-12-11T03:40:58.321Z,4.77
2022-12-11T03:46:02.110Z,4.27
2022-12-11T03:51:07.606Z,6.69
2022-12-11T03:56:14.124Z,7.61
2022-12-11T04:01:17.202Z,5.63
2022-12-11T04:06:20.223Z,4.03
2022-12-11T04:11:35.589Z,3.38
2022-12-11T04:16:38.868Z,5.78
2022-12-11T04:22:00.922Z,7.15
2022-12-11T04:27:04.184Z,5.26
2022-12-11T04:32:07.327Z,3.71
2022-12-11T04:37:10.342Z,4.73
2022-12-11T04:42:13.353Z,6.80
2022-12-11T04:47:16.391Z,5.46
2022-12-11T04:52:19.467Z,3.80
2022-12-11T04:57:22.645Z,4.97
2022-12-11T05:02:26.756Z,6.80
2022-12-11T05:07:29.775Z,5.13
2022-12-11T05:12:33.502Z,3.44
2022-12-11T05:17:36.525Z,3.46
2022-12-11T05:22:39.562Z,5.91
2022-12-11T05:27:42.599Z,5.09
2022-12-11T05:32:45.641Z,3.55
2022-12-11T05:37:48.642Z,5.31
2022-12-11T05:42:51.946Z,6.21
2022-12-11T05:47:56.156Z,4.23
2022-12-11T05:52:59.181Z,3.00
2022-12-11T05:58:02.233Z,4.84
2022-12-11T06:03:06.327Z,6.93
2022-12-11T06:08:09.605Z,6.74
2022-12-11T06:13:13.117Z,4.52
2022-12-11T06:18:16.185Z,3.08
2022-12-11T06:23:19.179Z,3.65
2022-12-11T06:28:22.174Z,5.96
2022-12-11T06:33:26.026Z,4.77
2022-12-11T06:38:29.420Z,3.12
2022-12-11T06:43:37.051Z,4.06
2022-12-11T06:48:42.386Z,6.19
2022-12-11T06:53:46.142Z,4.78
2022-12-11T06:58:49.767Z,3.23
2022-12-11T07:03:54.899Z,4.88
2022-12-11T07:08:57.889Z,6.06
2022-12-11T07:14:01.199Z,4.18
2022-12-11T07:19:04.973Z,2.77
2022-12-11T07:24:08.938Z,3.31
2022-12-11T07:29:11.989Z,5.91
2022-12-11T07:34:15.039Z,6.30
2022-12-11T07:39:18.032Z,4.13
2022-12-11T07:44:21.147Z,2.80
2022-12-11T07:49:24.245Z,2.81
2022-12-11T07:54:27.268Z,5.41
2022-12-11T07:59:30.348Z,6.19
2022-12-11T08:04:33.333Z,4.11
2022-12-11T08:09:36.328Z,2.83
2022-12-11T08:14:39.362Z,4.43
2022-12-11T08:19:42.333Z,5.77
2022-12-11T08:24:47.383Z,3.86
2022-12-11T08:29:50.426Z,2.57
2022-12-11T08:34:53.429Z,3.61
2022-12-11T08:39:56.424Z,5.94
2022-12-11T08:44:59.823Z,4.81
2022-12-11T08:50:04.141Z,2.98
2022-12-11T08:55:08.773Z,3.67
2022-12-11T09:00:13.581Z,5.44
2022-12-11T09:05:16.812Z,3.72
2022-12-11T09:10:20.083Z,2.38
2022-12-11T09:15:23.291Z,3.63
2022-12-11T09:20:26.297Z,6.02
2022-12-11T09:25:29.281Z,4.90
2022-12-11T09:30:32.352Z,2.95
2022-12-11T09:35:35.401Z,2.70
2022-12-11T09:40:43.539Z,5.17
2022-12-11T09:45:50.232Z,4.43
2022-12-11T09:50:55.536Z,2.72
2022-12-11T09:56:23.571Z,2.15
2022-12-11T10:02:17.738Z,4.71
2022-12-11T10:07:33.822Z,4.84
2022-12-11T10:12:48.835Z,2.75
2022-12-11T10:17:59.886Z,2.07
2022-12-11T10:23:19.753Z,4.59
2022-12-11T10:28:23.232Z,4.07
2022-12-11T11:19:03.197Z,2.50
2022-12-11T11:24:06.505Z,1.64
2022-12-11T11:29:34.694Z,3.46
2022-12-11T11:34:40.768Z,4.64
2022-12-11T11:39:45.308Z,2.70
2022-12-11T11:45:12.250Z,1.54
2022-12-11T11:50:22.619Z,0.83
2022-12-11T11:56:12.528Z,1.02
2022-12-11T12:01:19.521Z,4.52
2022-12-11T12:06:39.756Z,5.35
2022-12-11T12:12:33.807Z,3.29
2022-12-11T12:17:56.689Z,1.86
2022-12-11T12:23:17.536Z,2.44
2022-12-11T12:28:53.831Z,5.26
2022-12-11T12:34:31.195Z,4.65
2022-12-11T12:40:19.870Z,2.68
2022-12-11T12:45:35.173Z,1.52
2022-12-11T12:50:46.550Z,1.51
2022-12-11T12:55:50.274Z,4.55
2022-12-11T13:00:54.073Z,5.42
2022-12-11T13:06:01.325Z,3.38
2022-12-11T13:11:10.011Z,2.09
2022-12-11T13:16:16.204Z,1.29
2022-12-11T13:21:41.025Z,0.73
2022-12-11T13:26:44.989Z,0.54
2022-12-11T13:32:00.628Z,3.28
2022-12-11T13:37:05.404Z,5.67
2022-12-11T13:42:39.431Z,4.33
2022-12-11T13:47:42.613Z,2.33
2022-12-11T13:53:00.632Z,1.21
2022-12-11T13:58:03.639Z,1.11
2022-12-11T14:03:09.857Z,3.98
2022-12-11T14:08:20.729Z,4.80
2022-12-11T14:13:30.225Z,2.78
2022-12-11T14:18:36.806Z,1.49
2022-12-11T14:23:39.797Z,0.67
2022-12-11T14:28:43.681Z,1.24
2022-12-11T14:33:54.184Z,4.28
2022-12-11T14:39:14.130Z,4.88
2022-12-11T14:44:22.358Z,2.71
2022-12-11T14:49:25.338Z,1.42
2022-12-11T14:54:41.606Z,0.53
2022-12-11T14:59:48.285Z,2.03
2022-12-11T15:05:18.805Z,4.43
2022-12-11T15:10:32.501Z,2.47
2022-12-11T15:15:45.675Z,0.99
2022-12-11T15:21:03.576Z,0.29
2022-12-11T15:26:06.859Z,3.29
2022-12-11T15:31:31.511Z,4.91
2022-12-11T15:36:36.913Z,2.70
2022-12-11T15:41:43.384Z,1.31
2022-12-11T15:46:46.452Z,0.64
2022-12-11T15:51:49.451Z,3.42
2022-12-11T15:56:52.424Z,4.32
2022-12-11T16:01:55.500Z,2.17
2022-12-11T16:06:58.528Z,0.94
2022-12-11T16:12:01.798Z,0.19
2022-12-11T16:17:07.330Z,1.85
2022-12-11T16:22:12.314Z,5.03
2022-12-11T16:27:21.458Z,4.38
2022-12-11T16:32:26.103Z,2.26
2022-12-11T16:37:29.221Z,1.09
2022-12-11T16:42:32.979Z,0.33
2022-12-11T16:47:36.498Z,-0.17
2022-12-11T16:52:39.918Z,-0.43
2022-12-11T16:57:42.978Z,2.55
2022-12-11T17:02:46.012Z,4.08
2022-12-11T17:07:49.117Z,2.10
2022-12-11T17:12:52.174Z,0.84
2022-12-11T17:17:55.200Z,0.12
2022-12-11T17:22:58.699Z,-0.35
2022-12-11T17:28:01.701Z,0.81
2022-12-11T17:33:04.871Z,4.52
2022-12-11T17:38:08.016Z,4.22
2022-12-11T17:43:12.203Z,2.17
2022-12-11T17:48:16.226Z,0.99
2022-12-11T17:53:20.808Z,0.16
2022-12-11T17:58:23.831Z,0.72
2022-12-11T18:03:28.792Z,4.24
2022-12-11T18:08:33.074Z,3.42
2022-12-11T18:13:36.420Z,1.59
2022-12-11T18:18:40.217Z,0.58
2022-12-11T18:23:44.364Z,0.06
2022-12-11T18:28:51.242Z,2.98
2022-12-11T18:33:54.335Z,4.42
2022-12-11T18:38:57.418Z,2.30
2022-12-11T18:44:05.175Z,0.98
2022-12-11T18:49:11.169Z,0.18
2022-12-11T18:54:14.212Z,0.49
2022-12-11T18:59:17.486Z,3.75
2022-12-11T19:04:20.611Z,4.19
2022-12-11T19:09:23.699Z,2.13
2022-12-11T19:14:26.736Z,0.84
2022-12-11T19:19:29.775Z,0.34
2022-12-11T19:24:32.848Z,3.09
2022-12-11T19:29:36.070Z,4.20
2022-12-11T19:34:39.442Z,2.22
2022-12-11T19:39:42.465Z,0.88
2022-12-11T19:44:45.520Z,0.08
2022-12-11T19:49:49.084Z,0.72
2022-12-11T19:54:52.166Z,3.79
2022-12-11T19:59:57.385Z,3.30
2022-12-11T20:05:00.623Z,1.49
2022-12-11T20:10:03.925Z,0.47
2022-12-11T20:15:07.537Z,0.08
2022-12-11T20:20:11.995Z,2.83
2022-12-11T20:25:15.074Z,4.27
2022-12-11T20:30:19.470Z,2.36
2022-12-11T20:35:22.454Z,1.04
2022-12-11T20:40:25.476Z,0.25
2022-12-11T20:45:28.561Z,1.74
2022-12-11T20:50:31.621Z,4.45
2022-12-11T20:55:34.696Z,3.28
2022-12-11T21:00:39.673Z,1.52
2022-12-11T21:05:45.295Z,0.47
2022-12-11T21:10:48.313Z,-0.25
2022-12-11T21:15:52.858Z,0.97
2022-12-11T21:20:57.583Z,3.98
2022-12-11T21:26:00.992Z,3.00
2022-12-11T21:31:08.255Z,1.33
2022-12-11T21:36:13.717Z,0.33
2022-12-11T21:41:22.379Z,-0.24
2022-12-11T21:46:28.800Z,1.97
2022-12-11T21:51:37.948Z,3.84
2022-12-11T21:56:44.424Z,2.02
2022-12-11T22:01:47.429Z,0.77
2022-12-11T22:06:50.464Z,-0.01
2022-12-11T22:11:58.167Z,1.18
2022-12-11T22:17:01.878Z,4.09
2022-12-11T22:22:04.909Z,2.91
2022-12-11T22:27:07.968Z,1.29
2022-12-11T22:32:10.961Z,0.37
2022-12-11T22:37:13.955Z,-0.19
2022-12-11T22:42:17.598Z,1.44
2022-12-11T22:47:20.596Z,4.05
2022-12-11T22:52:23.577Z,2.59
2022-12-11T22:57:26.583Z,1.09
2022-12-11T23:02:29.630Z,0.20
2022-12-11T23:07:33.056Z,-0.39
2022-12-11T23:12:36.974Z,1.04
2022-12-11T23:17:39.833Z,4.00
2022-12-11T23:22:42.830Z,3.01
2022-12-11T23:27:45.845Z,1.33
2022-12-11T23:32:48.858Z,0.35
2022-12-11T23:37:51.900Z,-0.14
2022-12-11T23:42:54.901Z,2.35
2022-12-11T23:47:57.867Z,4.41
2022-12-11T23:53:00.889Z,2.63
2022-12-11T23:58:04.505Z,1.11
